createdAt,value
2022-12-11T00:01:19.765Z,4.83
2022-12-11T00:03:48.187Z,4.92
2022-12-11T00:06:17.783Z,4.93
2022-12-11T00:08:44.755Z,4.87
2022-12-11T00:11:14.602Z,4.88
2022-12-11T00:13:42.182Z,4.89
2022-12-11T00:16:10.206Z,4.82
2022-12-11T00:18:37.971Z,4.88
2022-12-11T00:21:07.109Z,4.79
2022-12-11T00:23:37.453Z,4.90
2022-12-11T00:26:10.014Z,4.94
2022-12-11T00:28:37.252Z,4.84
2022-12-11T00:31:08.864Z,4.95
2022-12-11T00:33:35.902Z,5.02
2022-12-11T00:36:03.053Z,5.07
2022-12-11T00:38:30.231Z,5.07
2022-12-11T00:41:01.013Z,4.96
2022-12-11T00:43:27.992Z,4.95
2022-12-11T00:45:54.994Z,4.92
2022-12-11T00:48:22.092Z,4.94
2022-12-11T00:50:49.117Z,5.04
2022-12-11T00:53:16.043Z,5.12
2022-12-11T00:55:44.478Z,5.02
2022-12-11T00:58:12.682Z,5.10
2022-12-11T01:00:40.387Z,5.13
2022-12-11T01:03:08.075Z,5.19
2022-12-11T01:05:35.382Z,5.19
2022-12-11T01:08:02.506Z,5.22
2022-12-11T01:10:29.756Z,5.21
2022-12-11T01:12:57.911Z,5.22
2022-12-11T01:15:28.018Z,5.18
2022-12-11T01:17:55.693Z,5.22
2022-12-11T01:20:24.152Z,5.16
2022-12-11T01:22:59.270Z,5.13
2022-12-11T01:25:28.009Z,5.13
2022-12-11T01:27:56.191Z,5.15
2022-12-11T01:30:24.151Z,5.17
2022-12-11T01:32:51.163Z,5.09
2022-12-11T01:35:18.469Z,5.16
2022-12-11T01:37:45.751Z,5.14
2022-12-11T01:40:15.715Z,5.14
2022-12-11T01:42:43.022Z,5.18
2022-12-11T01:45:23.048Z,5.24
2022-12-11T01:48:00.177Z,5.19
2022-12-11T01:50:29.386Z,5.24
2022-12-11T01:52:56.487Z,5.24
2022-12-11T01:55:23.647Z,5.29
2022-12-11T01:57:52.727Z,5.31
2022-12-11T02:00:20.929Z,5.28
2022-12-11T02:02:47.886Z,5.31
2022-12-11T02:05:15.249Z,5.29
2022-12-11T02:07:49.043Z,5.35
2022-12-11T02:10:16.588Z,5.36
2022-12-11T02:12:48.807Z,5.40
2022-12-11T02:15:26.617Z,5.37
2022-12-11T02:18:19.546Z,5.35
2022-12-11T02:21:02.809Z,5.31
2022-12-11T02:23:58.811Z,5.16
2022-12-11T02:26:55.920Z,4.92
2022-12-11T02:29:49.709Z,5.15
2022-12-11T02:32:31.725Z,5.17
2022-12-11T02:35:17.427Z,5.22
2022-12-11T02:37:47.009Z,5.27
2022-12-11T02:40:17.358Z,5.30
2022-12-11T02:42:47.853Z,5.27
2022-12-11T02:45:16.807Z,5.25
2022-12-11T02:47:47.447Z,5.08
2022-12-11T02:50:18.567Z,5.09
2022-12-11T02:52:47.797Z,5.19
2022-12-11T02:55:16.907Z,5.18
2022-12-11T02:58:05.490Z,5.18
2022-12-11T03:00:32.697Z,5.25
2022-12-11T03:02:59.857Z,5.27
2022-12-11T03:05:28.148Z,5.19
2022-12-11T03:07:55.084Z,5.21
2022-12-11T03:10:22.357Z,5.08
2022-12-11T03:12:53.923Z,5.15
2022-12-11T03:15:25.307Z,5.15
2022-12-11T03:18:40.529Z,5.01
2022-12-11T03:21:17.950Z,5.07
2022-12-11T03:24:11.930Z,5.01
2022-12-11T03:26:46.928Z,4.98
2022-12-11T03:29:32.195Z,4.95
2022-12-11T03:32:23.237Z,4.99
2022-12-11T03:34:59.787Z,5.03
2022-12-11T03:37:31.356Z,4.90
2022-12-11T03:40:03.390Z,4.83
2022-12-11T03:42:32.077Z,4.81
2022-12-11T03:45:00.509Z,4.70
2022-12-11T03:47:29.127Z,4.68
2022-12-11T03:49:58.517Z,4.86
2022-12-11T03:52:28.178Z,4.94
2022-12-11T03:54:59.666Z,4.97
2022-12-11T03:57:31.781Z,4.94
2022-12-11T03:59:59.128Z,4.97
2022-12-11T04:02:26.137Z,4.95
2022-12-11T04:04:53.086Z,4.94
2022-12-11T04:07:20.054Z,4.74
2022-12-11T04:09:47.007Z,4.62
2022-12-11T04:12:13.966Z,4.48
2022-12-11T04:14:59.388Z,4.58
2022-12-11T04:17:45.338Z,4.64
2022-12-11T04:20:31.198Z,4.63
2022-12-11T04:23:16.907Z,4.76
2022-12-11T04:25:43.919Z,4.78
2022-12-11T04:28:10.871Z,4.80
2022-12-11T04:30:37.828Z,4.63
2022-12-11T04:33:05.210Z,4.67
2022-12-11T04:35:32.122Z,4.63
2022-12-11T04:37:59.174Z,4.70
2022-12-11T04:40:26.128Z,4.68
2022-12-11T04:42:53.092Z,4.62
2022-12-11T04:45:20.112Z,4.41
2022-12-11T04:47:47.206Z,4.25
2022-12-11T04:50:15.866Z,4.37
2022-12-11T04:52:43.169Z,4.34
2022-12-11T04:55:11.535Z,4.50
2022-12-11T04:57:39.314Z,4.36
2022-12-11T05:00:09.215Z,4.46
2022-12-11T05:02:37.781Z,4.43
2022-12-11T05:05:06.146Z,4.28
2022-12-11T05:07:33.378Z,4.39
2022-12-11T05:10:00.346Z,4.33
2022-12-11T05:12:27.246Z,4.39
2022-12-11T05:14:55.567Z,4.42
2022-12-11T05:17:23.495Z,4.49
2022-12-11T05:19:51.899Z,4.49
2022-12-11T05:22:19.417Z,4.51
2022-12-11T05:24:46.485Z,4.47
2022-12-11T05:27:13.611Z,4.53
2022-12-11T05:29:40.811Z,4.57
2022-12-11T05:32:08.213Z,4.36
2022-12-11T05:34:35.455Z,4.34
2022-12-11T05:37:02.732Z,4.46
2022-12-11T05:39:30.331Z,4.52
2022-12-11T05:41:57.221Z,4.57
2022-12-11T05:44:24.410Z,4.57
2022-12-11T05:46:51.792Z,4.58
2022-12-11T05:49:20.122Z,4.65
2022-12-11T05:51:48.011Z,4.68
2022-12-11T05:54:15.531Z,4.70
2022-12-11T05:56:42.771Z,4.73
2022-12-11T05:59:10.609Z,4.72
2022-12-11T06:01:42.891Z,4.74
2022-12-11T06:04:12.653Z,4.76
2022-12-11T06:06:40.815Z,4.76
2022-12-11T06:09:08.344Z,4.74
2022-12-11T06:11:36.411Z,4.74
2022-12-11T06:14:04.337Z,4.76
2022-12-11T06:16:32.454Z,4.76
2022-12-11T06:18:59.811Z,4.76
2022-12-11T06:21:32.734Z,4.75
2022-12-11T06:24:02.295Z,4.70
2022-12-11T06:26:30.054Z,4.72
2022-12-11T06:28:57.215Z,4.69
2022-12-11T06:31:24.533Z,4.68
2022-12-11T06:33:51.732Z,4.51
2022-12-11T06:36:20.940Z,4.23
2022-12-11T06:38:48.938Z,4.46
2022-12-11T06:41:16.889Z,4.50
2022-12-11T06:43:44.170Z,4.47
2022-12-11T06:46:14.122Z,4.53
2022-12-11T06:48:42.570Z,4.51
2022-12-11T06:51:12.731Z,4.40
2022-12-11T06:53:40.890Z,4.40
2022-12-11T06:56:11.650Z,4.51
2022-12-11T06:58:39.811Z,4.55
2022-12-11T07:01:18.702Z,4.52
2022-12-11T07:03:46.531Z,4.39
2022-12-11T07:06:14.169Z,4.43
2022-12-11T07:08:42.170Z,4.52
2022-12-11T07:11:12.818Z,4.52
2022-12-11T07:13:42.304Z,4.48
2022-12-11T07:16:11.651Z,4.50
2022-12-11T07:18:40.534Z,4.38
2022-12-11T07:21:09.971Z,4.36
2022-12-11T07:23:37.170Z,4.41
2022-12-11T07:26:09.851Z,4.41
2022-12-11T07:28:37.569Z,4.46
2022-12-11T07:31:25.289Z,4.48
2022-12-11T07:34:05.450Z,4.41
2022-12-11T07:36:34.129Z,4.45
2022-12-11T07:39:01.851Z,4.40
2022-12-11T07:41:29.409Z,4.42
2022-12-11T07:43:56.770Z,4.49
2022-12-11T07:46:26.972Z,4.50
2022-12-11T07:48:54.575Z,4.55
2022-12-11T07:51:34.289Z,4.65
2022-12-11T07:54:06.977Z,4.68
2022-12-11T07:56:35.014Z,4.74
2022-12-11T07:59:04.333Z,4.79
2022-12-11T08:01:33.839Z,4.81
2022-12-11T08:04:01.091Z,4.77
2022-12-11T08:06:34.771Z,4.77
2022-12-11T08:09:04.176Z,4.86
2022-12-11T08:11:31.809Z,4.82
2022-12-11T08:14:00.012Z,4.65
2022-12-11T08:16:27.586Z,4.81
2022-12-11T08:18:55.131Z,4.66
2022-12-11T08:21:26.052Z,4.76
2022-12-11T08:23:54.491Z,4.88
2022-12-11T08:26:28.212Z,4.82
2022-12-11T08:28:56.340Z,4.86
2022-12-11T08:31:23.937Z,4.94
2022-12-11T08:33:51.654Z,5.08
2022-12-11T08:36:21.295Z,5.16
2022-12-11T08:38:50.131Z,5.15
2022-12-11T08:41:23.171Z,5.08
2022-12-11T08:43:55.185Z,5.18
2022-12-11T08:46:25.959Z,5.32
2022-12-11T08:48:54.615Z,5.47
2022-12-11T08:51:24.211Z,5.52
2022-12-11T08:53:52.250Z,5.51
2022-12-11T08:56:21.936Z,5.46
2022-12-11T08:58:49.289Z,5.46
2022-12-11T09:01:25.515Z,5.46
2022-12-11T09:03:54.539Z,5.59
2022-12-11T09:06:23.691Z,5.63
2022-12-11T09:08:53.433Z,5.66
2022-12-11T09:11:26.794Z,5.71
2022-12-11T09:13:55.052Z,5.67
2022-12-11T09:16:23.970Z,5.52
2022-12-11T09:18:52.809Z,5.66
2022-12-11T09:21:23.209Z,5.61
2022-12-11T09:23:53.858Z,5.50
2022-12-11T09:26:21.609Z,5.55
2022-12-11T09:28:49.252Z,5.58
2022-12-11T09:31:19.998Z,5.60
2022-12-11T09:33:47.252Z,5.83
2022-12-11T09:36:14.731Z,5.85
2022-12-11T09:38:44.289Z,5.70
2022-12-11T09:41:23.573Z,5.65
2022-12-11T09:44:13.665Z,5.84
2022-12-11T09:46:41.602Z,5.73
2022-12-11T09:49:44.265Z,5.80
2022-12-11T09:52:14.731Z,5.83
2022-12-11T09:54:49.570Z,5.65
2022-12-11T09:57:38.571Z,5.66
2022-12-11T10:00:14.375Z,5.75
2022-12-11T10:02:44.606Z,5.77
2022-12-11T10:05:29.570Z,5.81
2022-12-11T10:08:21.440Z,5.88
2022-12-11T10:11:03.490Z,5.78
2022-12-11T10:13:45.938Z,5.87
2022-12-11T10:16:21.498Z,5.76
2022-12-11T10:18:49.491Z,5.86
2022-12-11T10:21:18.972Z,5.88
2022-12-11T10:24:01.010Z,5.89
2022-12-11T10:26:29.770Z,6.11
2022-12-11T10:29:00.890Z,6.07
2022-12-11T10:31:49.889Z,6.02
2022-12-11T10:34:42.862Z,6.01
2022-12-11T10:37:10.214Z,6.05
2022-12-11T10:39:37.732Z,6.00
2022-12-11T10:42:18.855Z,5.90
2022-12-11T10:45:18.250Z,5.73
2022-12-11T10:47:46.211Z,5.90
2022-12-11T10:50:25.264Z,5.87
2022-12-11T10:52:53.650Z,5.83
2022-12-11T10:55:26.019Z,5.65
2022-12-11T10:58:04.651Z,5.56
2022-12-11T11:00:38.769Z,5.44
2022-12-11T11:03:20.331Z,5.36
2022-12-11T11:05:49.559Z,5.54
2022-12-11T11:08:23.921Z,5.51
2022-12-11T11:10:52.451Z,5.56
2022-12-11T11:13:22.529Z,5.74
2022-12-11T11:15:51.663Z,5.61
2022-12-11T11:18:27.369Z,5.45
2022-12-11T11:20:55.217Z,5.55
2022-12-11T11:23:24.139Z,5.57
2022-12-11T11:25:58.050Z,5.58
2022-12-11T11:28:29.930Z,5.24
2022-12-11T11:31:15.191Z,5.23
2022-12-11T11:33:59.135Z,5.42
2022-12-11T11:36:28.890Z,5.47
2022-12-11T11:39:07.851Z,5.52
2022-12-11T11:41:35.048Z,5.43
2022-12-11T11:44:07.370Z,5.46
2022-12-11T11:46:40.869Z,5.54
2022-12-11T11:49:16.771Z,5.68
2022-12-11T11:51:49.453Z,5.92
2022-12-11T11:54:49.490Z,5.93
2022-12-11T11:57:29.734Z,5.66
2022-12-11T12:00:10.092Z,5.95
2022-12-11T12:13:49.223Z,5.79
2022-12-11T12:16:59.180Z,5.94
2022-12-11T12:19:51.734Z,6.03
2022-12-11T12:22:37.810Z,6.08
2022-12-11T12:25:20.170Z,6.15
2022-12-11T12:28:15.545Z,6.10
2022-12-11T12:31:05.698Z,6.17
2022-12-11T12:33:59.329Z,6.11
2022-12-11T12:36:53.935Z,5.84
2022-12-11T12:39:42.209Z,6.04
2022-12-11T12:42:14.970Z,6.14
2022-12-11T12:45:11.581Z,6.17
2022-12-11T12:47:41.774Z,5.96
2022-12-11T12:50:16.775Z,5.85
2022-12-11T12:52:44.732Z,5.84
2022-12-11T12:55:23.196Z,5.54
2022-12-11T12:58:00.816Z,5.60
2022-12-11T13:00:33.015Z,5.56
2022-12-11T13:03:13.300Z,5.52
2022-12-11T13:05:44.969Z,5.32
2022-12-11T13:08:13.831Z,5.24
2022-12-11T13:10:43.413Z,5.09
2022-12-11T13:13:33.611Z,5.01
2022-12-11T13:16:15.886Z,4.88
2022-12-11T13:18:45.609Z,4.94
2022-12-11T13:21:30.290Z,4.86
2022-12-11T13:24:20.491Z,4.66
2022-12-11T13:26:49.850Z,4.86
2022-12-11T13:29:38.892Z,4.73
2022-12-11T13:32:18.413Z,4.63
2022-12-11T13:34:53.330Z,4.47
2022-12-11T13:37:38.689Z,4.50
2022-12-11T13:40:14.611Z,4.56
2022-12-11T13:42:55.930Z,4.55
2022-12-11T13:45:40.359Z,4.47
2022-12-11T13:48:23.259Z,4.48
2022-12-11T13:50:52.691Z,4.46
2022-12-11T13:53:21.650Z,4.35
2022-12-11T13:56:05.531Z,4.29
2022-12-11T13:58:40.851Z,4.22
2022-12-11T14:01:13.164Z,4.30
2022-12-11T14:03:56.217Z,4.12
2022-12-11T14:06:25.538Z,4.03
2022-12-11T14:08:55.730Z,3.70
2022-12-11T14:11:30.332Z,3.65
2022-12-11T14:14:03.771Z,3.65
2022-12-11T14:16:31.619Z,3.89
2022-12-11T14:19:08.929Z,3.56
2022-12-11T14:21:37.130Z,3.62
2022-12-11T14:24:06.784Z,3.59
2022-12-11T14:26:38.295Z,3.38
2022-12-11T14:29:06.692Z,3.37
2022-12-11T14:31:40.017Z,3.46
2022-12-11T14:34:14.170Z,3.40
2022-12-11T14:36:42.889Z,3.30
2022-12-11T14:39:42.189Z,3.13
2022-12-11T14:42:20.732Z,3.08
2022-12-11T14:44:57.050Z,2.95
2022-12-11T14:47:41.618Z,2.82
2022-12-11T14:50:33.014Z,2.91
2022-12-11T14:53:10.658Z,2.72
2022-12-11T14:55:39.059Z,2.65
2022-12-11T14:58:12.452Z,2.80
2022-12-11T15:00:39.572Z,2.66
2022-12-11T15:03:12.772Z,2.59
2022-12-11T15:05:53.971Z,2.56
2022-12-11T15:08:26.778Z,2.59
2022-12-11T15:11:10.774Z,2.54
2022-12-11T15:14:06.810Z,2.47
2022-12-11T15:16:37.636Z,2.32
2022-12-11T15:19:05.019Z,2.63
2022-12-11T15:21:37.250Z,2.42
2022-12-11T15:24:07.291Z,2.45
2022-12-11T15:26:40.211Z,2.52
2022-12-11T15:29:26.053Z,2.58
2022-12-11T15:32:18.976Z,2.52
2022-12-11T15:34:55.858Z,2.70
2022-12-11T15:37:26.258Z,2.74
2022-12-11T15:39:55.293Z,2.70
2022-12-11T15:42:25.253Z,2.76
2022-12-11T15:44:53.572Z,2.83
2022-12-11T15:47:27.541Z,2.89
2022-12-11T15:49:58.533Z,2.87
2022-12-11T15:52:25.970Z,2.93
2022-12-11T15:54:53.130Z,2.94
2022-12-11T15:57:23.329Z,2.93
2022-12-11T15:59:53.010Z,2.88
2022-12-11T16:02:20.418Z,2.80
2022-12-11T16:04:47.772Z,2.75
2022-12-11T16:07:26.171Z,2.77
2022-12-11T16:09:53.971Z,2.84
2022-12-11T16:12:21.215Z,2.81
2022-12-11T16:14:48.490Z,2.80
2022-12-11T16:17:16.331Z,2.79
2022-12-11T16:19:44.653Z,2.78
2022-12-11T16:22:13.093Z,2.81
2022-12-11T16:24:41.091Z,2.81
2022-12-11T16:27:12.335Z,2.78
2022-12-11T16:29:41.690Z,2.74
2022-12-11T16:32:09.370Z,2.74
2022-12-11T16:34:37.697Z,2.82
2022-12-11T16:37:08.215Z,2.72
2022-12-11T16:39:37.616Z,2.71
2022-12-11T16:42:06.091Z,2.62
2022-12-11T16:44:33.504Z,2.63
2022-12-11T16:47:00.811Z,2.65
2022-12-11T16:49:27.973Z,2.67
2022-12-11T16:51:55.253Z,2.64
2022-12-11T16:54:22.494Z,2.64
2022-12-11T16:56:49.747Z,2.66
2022-12-11T16:59:17.265Z,2.64
2022-12-11T17:01:56.735Z,2.66
2022-12-11T17:04:29.222Z,2.61
2022-12-11T17:06:56.640Z,2.64
2022-12-11T17:09:23.746Z,2.65
2022-12-11T17:11:53.772Z,2.63
2022-12-11T17:14:20.956Z,2.57
2022-12-11T17:16:48.541Z,2.56
2022-12-11T17:19:16.727Z,2.58
2022-12-11T17:21:48.398Z,2.52
2022-12-11T17:24:18.239Z,2.55
2022-12-11T17:26:45.086Z,2.57
2022-12-11T17:29:13.412Z,2.48
2022-12-11T17:31:41.349Z,2.48
2022-12-11T17:34:08.468Z,2.52
2022-12-11T17:36:36.266Z,2.42
2022-12-11T17:41:38.936Z,2.39
2022-12-11T17:44:06.067Z,2.40
2022-12-11T17:46:33.357Z,2.41
2022-12-11T17:49:04.148Z,2.39
2022-12-11T17:51:31.702Z,2.41
2022-12-11T17:53:59.019Z,2.37
2022-12-11T17:56:26.534Z,2.31
2022-12-11T17:58:53.816Z,2.37
2022-12-11T18:01:22.085Z,2.28
2022-12-11T18:03:49.396Z,2.24
2022-12-11T18:06:18.926Z,2.20
2022-12-11T18:08:47.135Z,2.20
2022-12-11T18:11:16.506Z,2.19
2022-12-11T18:13:45.091Z,2.21
2022-12-11T18:16:25.150Z,2.21
2022-12-11T18:18:53.173Z,2.23
2022-12-11T18:21:23.331Z,2.20
2022-12-11T18:23:51.256Z,2.16
2022-12-11T18:26:20.028Z,2.17
2022-12-11T18:28:47.827Z,2.09
2022-12-11T18:31:15.700Z,2.08
2022-12-11T18:33:44.693Z,2.19
2022-12-11T18:36:13.591Z,2.16
2022-12-11T18:38:42.334Z,2.10
2022-12-11T18:41:11.573Z,2.17
2022-12-11T18:43:40.144Z,2.23
2022-12-11T18:46:13.049Z,2.23
2022-12-11T18:48:41.307Z,2.31
2022-12-11T18:51:10.623Z,2.33
2022-12-11T18:53:39.693Z,2.34
2022-12-11T18:56:15.981Z,2.34
2022-12-11T18:58:43.655Z,2.32
2022-12-11T19:01:18.549Z,2.31
2022-12-11T19:03:46.410Z,2.29
2022-12-11T19:06:20.895Z,2.26
2022-12-11T19:08:49.173Z,2.26
2022-12-11T19:11:19.613Z,2.28
2022-12-11T19:13:46.932Z,2.27
2022-12-11T19:16:22.483Z,2.21
2022-12-11T19:18:50.691Z,2.22
2022-12-11T19:21:18.941Z,2.20
2022-12-11T19:23:46.376Z,2.11
2022-12-11T19:26:16.891Z,2.08
2022-12-11T19:28:44.852Z,2.01
2022-12-11T19:31:22.586Z,2.04
2022-12-11T19:33:50.627Z,1.94
2022-12-11T19:36:21.097Z,1.95
2022-12-11T19:38:48.853Z,1.89
2022-12-11T19:41:18.996Z,1.93
2022-12-11T19:43:46.275Z,1.92
2022-12-11T19:46:14.341Z,1.91
2022-12-11T19:48:42.060Z,1.89
2022-12-11T19:51:13.255Z,1.87
2022-12-11T19:53:41.774Z,1.91
2022-12-11T19:56:09.740Z,1.76
2022-12-11T19:58:36.772Z,1.83
2022-12-11T20:01:04.490Z,1.84
2022-12-11T20:03:32.200Z,1.80
2022-12-11T20:06:01.707Z,1.80
2022-12-11T20:08:44.304Z,1.84
2022-12-11T20:11:18.015Z,1.76
2022-12-11T20:13:47.195Z,1.72
2022-12-11T20:16:15.764Z,1.71
2022-12-11T20:18:42.965Z,1.71
2022-12-11T20:21:13.938Z,1.69
2022-12-11T20:23:42.427Z,1.64
2022-12-11T20:26:15.775Z,1.64
2022-12-11T20:28:43.584Z,1.63
2022-12-11T20:31:19.945Z,1.61
2022-12-11T20:33:49.549Z,1.60
2022-12-11T20:36:18.779Z,1.55
2022-12-11T20:38:46.771Z,1.54
2022-12-11T20:41:16.339Z,1.49
2022-12-11T20:43:43.899Z,1.47
2022-12-11T20:46:12.957Z,1.45
2022-12-11T20:48:42.772Z,1.42
2022-12-11T20:51:12.778Z,1.39
2022-12-11T20:53:40.491Z,1.38
2022-12-11T20:56:13.656Z,1.28
2022-12-11T20:58:41.373Z,1.17
2022-12-11T21:01:17.869Z,1.14
2022-12-11T21:03:45.652Z,1.10
2022-12-11T21:06:31.646Z,1.07
2022-12-11T21:09:00.738Z,1.08
2022-12-11T21:11:28.781Z,1.11
2022-12-11T21:13:56.652Z,1.09
2022-12-11T21:16:24.461Z,1.07
2022-12-11T21:18:52.295Z,1.09
2022-12-11T21:21:20.519Z,1.10
2022-12-11T21:23:47.682Z,1.03
2022-12-11T21:26:15.662Z,0.94
2022-12-11T21:28:44.254Z,0.90
2022-12-11T21:31:18.234Z,0.94
2022-12-11T21:33:45.889Z,0.97
2022-12-11T21:36:14.893Z,0.99
2022-12-11T21:38:43.899Z,1.02
2022-12-11T21:41:15.931Z,1.08
2022-12-11T21:44:14.650Z,1.03
2022-12-11T21:46:33.548Z,0.97
2022-12-11T21:49:00.809Z,0.96
2022-12-11T21:51:36.533Z,0.96
2022-12-11T21:54:10.614Z,0.93
2022-12-11T21:56:37.970Z,0.90
2022-12-11T21:59:05.534Z,0.89
2022-12-11T22:01:37.491Z,0.90
2022-12-11T22:04:05.977Z,0.92
2022-12-11T22:06:33.729Z,0.96
2022-12-11T22:09:01.463Z,0.94
2022-12-11T22:11:31.298Z,0.96
2022-12-11T22:13:59.307Z,0.96
2022-12-11T22:16:26.602Z,0.99
2022-12-11T22:18:53.982Z,0.95
2022-12-11T22:21:21.371Z,0.98
2022-12-11T22:23:48.771Z,0.97
2022-12-11T22:26:20.173Z,0.97
2022-12-11T22:28:47.810Z,0.94
2022-12-11T22:31:17.462Z,0.97
2022-12-11T22:33:44.730Z,0.96
2022-12-11T22:36:12.411Z,1.02
2022-12-11T22:38:40.132Z,1.01
2022-12-11T22:41:31.940Z,1.00
2022-12-11T22:43:59.810Z,1.00
2022-12-11T22:46:29.540Z,0.97
2022-12-11T22:48:57.851Z,0.89
2022-12-11T22:51:25.294Z,0.87
2022-12-11T22:53:52.579Z,0.85
2022-12-11T22:56:19.947Z,0.88
2022-12-11T22:58:47.419Z,0.88
2022-12-11T23:01:21.011Z,0.88
2022-12-11T23:03:49.060Z,0.89
2022-12-11T23:06:17.614Z,0.85
2022-12-11T23:08:45.378Z,0.88
2022-12-11T23:11:21.972Z,0.88
2022-12-11T23:13:49.212Z,0.88
2022-12-11T23:16:16.907Z,0.87
2022-12-11T23:18:44.210Z,0.83
2022-12-11T23:21:12.776Z,0.83
2022-12-11T23:23:40.130Z,0.83
2022-12-11T23:26:10.617Z,0.86
2022-12-11T23:28:38.651Z,0.87
2022-12-11T23:31:06.037Z,0.89
2022-12-11T23:33:33.491Z,0.87
2022-12-11T23:36:00.813Z,0.86
2022-12-11T23:38:28.174Z,0.85
2022-12-11T23:40:55.725Z,0.84
2022-12-11T23:43:23.690Z,0.84
2022-12-11T23:45:50.880Z,0.82
2022-12-11T23:48:18.889Z,0.84
2022-12-11T23:50:46.271Z,0.81
2022-12-11T23:53:13.617Z,0.75
2022-12-11T23:55:43.454Z,0.74
2022-12-11T23:58:11.113Z,0.69
